sensor_id;sensor_type;location;lat;lon;timestamp;pressure;altitude;pressure_sealevel;temperature;humidity
42847;BME280;28495;49.916;14.536;2023-04-20T00:03:40;97015.66;;;4.71;65.26
42847;BME280;28495;49.916;14.536;2023-04-20T00:09:01;97000.38;;;4.53;64.57
42847;BME280;28495;49.916;14.536;2023-04-20T00:14:24;96997.97;;;4.37;64.88
42847;BME280;28495;49.916;14.536;2023-04-20T00:19:44;96993.69;;;4.51;65.58
42847;BME280;28495;49.916;14.536;2023-04-20T00:25:06;96976.41;;;4.51;64.83
42847;BME280;28495;49.916;14.536;2023-04-20T00:30:27;96979.78;;;4.39;65.47
42847;BME280;28495;49.916;14.536;2023-04-20T00:35:47;96973.91;;;4.22;65.56
42847;BME280;28495;49.916;14.536;2023-04-20T00:41:08;96978.97;;;4.24;65.82
42847;BME280;28495;49.916;14.536;2023-04-20T00:46:29;96979.34;;;4.32;65.76
42847;BME280;28495;49.916;14.536;2023-04-20T00:51:51;96971.22;;;4.24;66.05
42847;BME280;28495;49.916;14.536;2023-04-20T00:57:12;96966.13;;;4.37;66.19
42847;BME280;28495;49.916;14.536;2023-04-20T01:02:33;96965.56;;;4.46;65.83
42847;BME280;28495;49.916;14.536;2023-04-20T01:07:54;96960.09;;;4.51;66.08
42847;BME280;28495;49.916;14.536;2023-04-20T01:13:15;96974.38;;;4.56;66.15
42847;BME280;28495;49.916;14.536;2023-04-20T01:18:47;96974.88;;;4.62;66.76
42847;BME280;28495;49.916;14.536;2023-04-20T01:24:08;96971.81;;;4.69;65.94
42847;BME280;28495;49.916;14.536;2023-04-20T01:29:28;96962.81;;;4.62;66.31
42847;BME280;28495;49.916;14.536;2023-04-20T01:34:49;96949.53;;;4.68;66.41
42847;BME280;28495;49.916;14.536;2023-04-20T01:40:11;96952.91;;;4.69;66.30
42847;BME280;28495;49.916;14.536;2023-04-20T01:45:32;96952.28;;;4.65;66.73
42847;BME280;28495;49.916;14.536;2023-04-20T01:50:53;96953.28;;;4.90;66.52
42847;BME280;28495;49.916;14.536;2023-04-20T01:56:14;96947.59;;;4.98;66.89
42847;BME280;28495;49.916;14.536;2023-04-20T02:01:35;96939.75;;;4.99;66.21
42847;BME280;28495;49.916;14.536;2023-04-20T02:06:56;96937.97;;;4.74;65.87
42847;BME280;28495;49.916;14.536;2023-04-20T02:12:17;96941.16;;;4.78;66.31
42847;BME280;28495;49.916;14.536;2023-04-20T02:17:37;96933.53;;;4.76;66.35
42847;BME280;28495;49.916;14.536;2023-04-20T02:22:58;96928.84;;;4.68;66.10
42847;BME280;28495;49.916;14.536;2023-04-20T02:28:20;96929.91;;;4.51;65.88
42847;BME280;28495;49.916;14.536;2023-04-20T02:33:41;96923.75;;;4.26;66.00
42847;BME280;28495;49.916;14.536;2023-04-20T02:39:02;96925.97;;;4.18;66.44
42847;BME280;28495;49.916;14.536;2023-04-20T02:44:23;96925.72;;;4.23;66.42
42847;BME280;28495;49.916;14.536;2023-04-20T02:49:44;96928.03;;;4.13;66.41
42847;BME280;28495;49.916;14.536;2023-04-20T02:55:06;96922.38;;;4.21;66.58
42847;BME280;28495;49.916;14.536;2023-04-20T03:00:28;96922.75;;;4.15;66.78
42847;BME280;28495;49.916;14.536;2023-04-20T03:05:55;96928.06;;;3.99;66.64
42847;BME280;28495;49.916;14.536;2023-04-20T03:11:17;96933.94;;;4.15;67.09
42847;BME280;28495;49.916;14.536;2023-04-20T03:16:39;96936.25;;;4.33;67.26
42847;BME280;28495;49.916;14.536;2023-04-20T03:22:02;96924.94;;;4.48;67.24
42847;BME280;28495;49.916;14.536;2023-04-20T03:27:25;96942.97;;;4.63;67.25
42847;BME280;28495;49.916;14.536;2023-04-20T03:32:57;96944.75;;;4.62;66.89
42847;BME280;28495;49.916;14.536;2023-04-20T03:38:20;96944.66;;;4.36;67.33
42847;BME280;28495;49.916;14.536;2023-04-20T03:43:41;96941.19;;;4.23;67.15
42847;BME280;28495;49.916;14.536;2023-04-20T03:49:02;96940.72;;;4.16;67.81
42847;BME280;28495;49.916;14.536;2023-04-20T03:54:23;96942.22;;;4.06;67.95
42847;BME280;28495;49.916;14.536;2023-04-20T03:59:45;96946.84;;;3.86;67.37
42847;BME280;28495;49.916;14.536;2023-04-20T04:05:10;96936.00;;;3.81;67.73
42847;BME280;28495;49.916;14.536;2023-04-20T04:10:31;96940.59;;;3.90;67.89
42847;BME280;28495;49.916;14.536;2023-04-20T04:15:52;96934.81;;;3.72;68.10
42847;BME280;28495;49.916;14.536;2023-04-20T04:21:13;96930.94;;;3.65;68.42
42847;BME280;28495;49.916;14.536;2023-04-20T04:26:39;96940.25;;;3.68;68.65
42847;BME280;28495;49.916;14.536;2023-04-20T04:32:01;96937.88;;;3.64;68.59
42847;BME280;28495;49.916;14.536;2023-04-20T04:37:23;96948.06;;;3.80;68.62
42847;BME280;28495;49.916;14.536;2023-04-20T04:42:47;96960.13;;;3.94;68.34
42847;BME280;28495;49.916;14.536;2023-04-20T04:48:08;96960.63;;;4.29;69.48
42847;BME280;28495;49.916;14.536;2023-04-20T04:53:32;96953.47;;;4.47;69.14
42847;BME280;28495;49.916;14.536;2023-04-20T04:58:52;96948.44;;;4.58;69.02
42847;BME280;28495;49.916;14.536;2023-04-20T05:04:14;96946.28;;;4.65;68.53
42847;BME280;28495;49.916;14.536;2023-04-20T05:09:38;96940.03;;;4.82;68.61
42847;BME280;28495;49.916;14.536;2023-04-20T05:14:59;96951.13;;;4.84;68.46
42847;BME280;28495;49.916;14.536;2023-04-20T05:20:20;96953.97;;;4.79;68.43
42847;BME280;28495;49.916;14.536;2023-04-20T05:25:41;96952.22;;;4.80;68.51
42847;BME280;28495;49.916;14.536;2023-04-20T05:31:02;96948.16;;;5.03;69.03
42847;BME280;28495;49.916;14.536;2023-04-20T05:36:23;96957.13;;;5.10;68.88
42847;BME280;28495;49.916;14.536;2023-04-20T05:41:45;96957.44;;;5.06;68.55
42847;BME280;28495;49.916;14.536;2023-04-20T05:47:06;96957.97;;;5.24;69.23
42847;BME280;28495;49.916;14.536;2023-04-20T05:52:28;96967.59;;;5.34;68.87
42847;BME280;28495;49.916;14.536;2023-04-20T05:57:50;96961.94;;;5.29;68.35
42847;BME280;28495;49.916;14.536;2023-04-20T06:03:11;96970.06;;;5.10;68.60
42847;BME280;28495;49.916;14.536;2023-04-20T06:08:33;96968.72;;;5.04;68.58
42847;BME280;28495;49.916;14.536;2023-04-20T06:13:53;96970.97;;;4.96;68.62
42847;BME280;28495;49.916;14.536;2023-04-20T06:19:14;96978.19;;;4.91;68.97
42847;BME280;28495;49.916;14.536;2023-04-20T06:24:35;96981.41;;;4.95;68.93
42847;BME280;28495;49.916;14.536;2023-04-20T06:29:58;96983.50;;;5.02;69.11
42847;BME280;28495;49.916;14.536;2023-04-20T06:35:18;96975.94;;;4.99;68.87
42847;BME280;28495;49.916;14.536;2023-04-20T06:40:39;96978.47;;;5.14;69.61
42847;BME280;28495;49.916;14.536;2023-04-20T06:46:00;96980.50;;;5.09;68.83
42847;BME280;28495;49.916;14.536;2023-04-20T06:51:21;96968.81;;;5.03;69.48
42847;BME280;28495;49.916;14.536;2023-04-20T06:56:41;96966.75;;;5.08;69.59
42847;BME280;28495;49.916;14.536;2023-04-20T07:02:02;96975.53;;;5.06;69.26
42847;BME280;28495;49.916;14.536;2023-04-20T07:07:23;96950.53;;;5.06;69.31
42847;BME280;28495;49.916;14.536;2023-04-20T07:12:44;96968.81;;;5.16;69.83
42847;BME280;28495;49.916;14.536;2023-04-20T07:18:05;96960.13;;;5.17;69.50
42847;BME280;28495;49.916;14.536;2023-04-20T07:23:26;96959.22;;;5.18;69.33
42847;BME280;28495;49.916;14.536;2023-04-20T07:28:46;96969.56;;;5.18;69.75
42847;BME280;28495;49.916;14.536;2023-04-20T07:34:07;96999.47;;;5.22;69.24
42847;BME280;28495;49.916;14.536;2023-04-20T07:39:28;96988.97;;;4.98;69.35
42847;BME280;28495;49.916;14.536;2023-04-20T07:44:50;96989.94;;;4.82;69.16
42847;BME280;28495;49.916;14.536;2023-04-20T07:50:10;97001.56;;;4.62;69.36
42847;BME280;28495;49.916;14.536;2023-04-20T07:55:31;97007.94;;;4.56;69.80
42847;BME280;28495;49.916;14.536;2023-04-20T08:00:52;97006.19;;;4.57;70.20
42847;BME280;28495;49.916;14.536;2023-04-20T08:06:13;96993.81;;;4.62;69.69
42847;BME280;28495;49.916;14.536;2023-04-20T08:11:34;96994.56;;;4.77;70.46
42847;BME280;28495;49.916;14.536;2023-04-20T08:16:55;96988.47;;;4.78;70.53
42847;BME280;28495;49.916;14.536;2023-04-20T08:22:16;96987.72;;;4.91;70.48
42847;BME280;28495;49.916;14.536;2023-04-20T08:27:37;96980.47;;;4.96;70.30
42847;BME280;28495;49.916;14.536;2023-04-20T08:32:58;96971.63;;;5.13;70.63
42847;BME280;28495;49.916;14.536;2023-04-20T08:38:19;96965.66;;;5.25;70.98
42847;BME280;28495;49.916;14.536;2023-04-20T08:43:52;96955.09;;;5.41;70.65
42847;BME280;28495;49.916;14.536;2023-04-20T08:49:18;96959.66;;;5.51;70.62
42847;BME280;28495;49.916;14.536;2023-04-20T08:54:39;96962.66;;;5.57;70.86
42847;BME280;28495;49.916;14.536;2023-04-20T09:00:16;96960.28;;;5.67;70.59
42847;BME280;28495;49.916;14.536;2023-04-20T09:05:37;96952.91;;;5.48;70.59
42847;BME280;28495;49.916;14.536;2023-04-20T09:10:59;96966.47;;;5.64;70.73
42847;BME280;28495;49.916;14.536;2023-04-20T09:16:20;96957.78;;;5.78;70.98
42847;BME280;28495;49.916;14.536;2023-04-20T09:21:51;96960.03;;;5.96;71.24
42847;BME280;28495;49.916;14.536;2023-04-20T09:27:16;96959.88;;;6.23;71.20
42847;BME280;28495;49.916;14.536;2023-04-20T09:32:38;96955.38;;;6.38;71.09
42847;BME280;28495;49.916;14.536;2023-04-20T09:37:58;96953.00;;;6.60;70.88
42847;BME280;28495;49.916;14.536;2023-04-20T09:43:23;96956.09;;;6.65;70.71
42847;BME280;28495;49.916;14.536;2023-04-20T09:48:44;96954.72;;;6.72;70.41
42847;BME280;28495;49.916;14.536;2023-04-20T09:54:05;96954.59;;;6.74;70.41
42847;BME280;28495;49.916;14.536;2023-04-20T09:59:26;96949.81;;;6.80;70.62
42847;BME280;28495;49.916;14.536;2023-04-20T10:04:55;96940.31;;;7.04;70.78
42847;BME280;28495;49.916;14.536;2023-04-20T10:10:16;96936.47;;;7.21;70.52
42847;BME280;28495;49.916;14.536;2023-04-20T10:15:39;96926.25;;;7.42;71.31
42847;BME280;28495;49.916;14.536;2023-04-20T10:21:05;96924.59;;;7.75;70.94
42847;BME280;28495;49.916;14.536;2023-04-20T10:26:39;96936.16;;;7.82;70.50
42847;BME280;28495;49.916;14.536;2023-04-20T10:32:00;96924.22;;;7.91;70.69
42847;BME280;28495;49.916;14.536;2023-04-20T10:37:21;96931.91;;;7.81;69.74
42847;BME280;28495;49.916;14.536;2023-04-20T10:42:43;96911.63;;;7.75;70.00
42847;BME280;28495;49.916;14.536;2023-04-20T10:48:08;96920.22;;;7.87;70.08
42847;BME280;28495;49.916;14.536;2023-04-20T10:53:29;96912.66;;;7.95;70.26
42847;BME280;28495;49.916;14.536;2023-04-20T10:58:50;96909.47;;;8.03;70.55
42847;BME280;28495;49.916;14.536;2023-04-20T11:04:11;96901.91;;;8.00;69.88
42847;BME280;28495;49.916;14.536;2023-04-20T11:09:35;96895.41;;;8.05;70.40
42847;BME280;28495;49.916;14.536;2023-04-20T11:14:58;96888.09;;;8.11;70.54
42847;BME280;28495;49.916;14.536;2023-04-20T11:20:20;96889.22;;;8.18;70.63
42847;BME280;28495;49.916;14.536;2023-04-20T11:25:53;96884.13;;;8.28;70.30
42847;BME280;28495;49.916;14.536;2023-04-20T11:31:18;96884.09;;;8.50;71.78
42847;BME280;28495;49.916;14.536;2023-04-20T11:36:38;96887.66;;;8.71;70.62
42847;BME280;28495;49.916;14.536;2023-04-20T11:42:00;96888.47;;;8.71;70.65
42847;BME280;28495;49.916;14.536;2023-04-20T11:47:21;96888.94;;;8.76;70.67
42847;BME280;28495;49.916;14.536;2023-04-20T11:52:42;96880.06;;;8.79;70.64
42847;BME280;28495;49.916;14.536;2023-04-20T11:58:03;96872.72;;;8.84;70.27
42847;BME280;28495;49.916;14.536;2023-04-20T12:03:24;96872.63;;;8.95;70.38
42847;BME280;28495;49.916;14.536;2023-04-20T12:08:46;96868.38;;;9.15;71.03
42847;BME280;28495;49.916;14.536;2023-04-20T12:14:08;96862.06;;;9.39;70.62
42847;BME280;28495;49.916;14.536;2023-04-20T12:19:29;96863.09;;;9.58;70.61
42847;BME280;28495;49.916;14.536;2023-04-20T12:24:50;96861.63;;;9.75;70.42
42847;BME280;28495;49.916;14.536;2023-04-20T12:30:11;96860.16;;;9.82;70.22
42847;BME280;28495;49.916;14.536;2023-04-20T12:35:32;96858.69;;;9.99;70.74
42847;BME280;28495;49.916;14.536;2023-04-20T12:40:53;96856.09;;;10.09;70.10
42847;BME280;28495;49.916;14.536;2023-04-20T12:46:13;96850.59;;;10.22;70.44
42847;BME280;28495;49.916;14.536;2023-04-20T12:51:34;96838.69;;;10.29;70.41
42847;BME280;28495;49.916;14.536;2023-04-20T12:56:55;96839.25;;;10.43;70.33
42847;BME280;28495;49.916;14.536;2023-04-20T13:02:17;96826.50;;;10.69;70.17
42847;BME280;28495;49.916;14.536;2023-04-20T13:07:38;96815.72;;;10.92;70.06
42847;BME280;28495;49.916;14.536;2023-04-20T13:12:59;96810.34;;;11.03;69.93
42847;BME280;28495;49.916;14.536;2023-04-20T13:18:21;96813.38;;;10.98;69.62
42847;BME280;28495;49.916;14.536;2023-04-20T13:23:44;96797.00;;;11.06;69.71
42847;BME280;28495;49.916;14.536;2023-04-20T13:29:04;96793.94;;;11.21;69.83
42847;BME280;28495;49.916;14.536;2023-04-20T13:34:25;96799.13;;;11.31;69.47
42847;BME280;28495;49.916;14.536;2023-04-20T13:39:46;96792.88;;;11.41;69.55
42847;BME280;28495;49.916;14.536;2023-04-20T13:45:07;96785.97;;;11.50;69.47
42847;BME280;28495;49.916;14.536;2023-04-20T13:50:30;96796.81;;;11.55;69.17
42847;BME280;28495;49.916;14.536;2023-04-20T13:55:50;96788.09;;;11.65;69.26
42847;BME280;28495;49.916;14.536;2023-04-20T14:01:12;96788.03;;;11.74;69.20
42847;BME280;28495;49.916;14.536;2023-04-20T14:06:35;96784.75;;;11.90;69.00
42847;BME280;28495;49.916;14.536;2023-04-20T14:11:56;96780.34;;;12.01;68.85
42847;BME280;28495;49.916;14.536;2023-04-20T14:17:16;96774.50;;;12.07;68.80
42847;BME280;28495;49.916;14.536;2023-04-20T14:22:37;96774.19;;;12.10;68.78
42847;BME280;28495;49.916;14.536;2023-04-20T14:27:58;96773.28;;;12.19;68.71
42847;BME280;28495;49.916;14.536;2023-04-20T14:33:19;96764.41;;;12.30;68.94
42847;BME280;28495;49.916;14.536;2023-04-20T14:38:39;96762.00;;;12.37;68.71
42847;BME280;28495;49.916;14.536;2023-04-20T14:44:00;96754.22;;;12.45;68.74
42847;BME280;28495;49.916;14.536;2023-04-20T14:49:22;96757.56;;;12.56;67.94
42847;BME280;28495;49.916;14.536;2023-04-20T14:54:42;96751.81;;;12.52;67.83
42847;BME280;28495;49.916;14.536;2023-04-20T15:00:06;96749.56;;;12.57;67.73
42847;BME280;28495;49.916;14.536;2023-04-20T15:05:27;96750.72;;;12.63;67.41
42847;BME280;28495;49.916;14.536;2023-04-20T15:10:48;96742.34;;;12.77;67.48
42847;BME280;28495;49.916;14.536;2023-04-20T15:16:09;96741.44;;;12.95;67.48
42847;BME280;28495;49.916;14.536;2023-04-20T15:21:30;96734.63;;;13.10;67.35
42847;BME280;28495;49.916;14.536;2023-04-20T15:26:52;96732.88;;;13.19;66.91
42847;BME280;28495;49.916;14.536;2023-04-20T15:32:13;96733.19;;;13.16;66.47
42847;BME280;28495;49.916;14.536;2023-04-20T15:37:36;96733.19;;;13.16;66.69
42847;BME280;28495;49.916;14.536;2023-04-20T15:42:56;96729.28;;;13.20;66.56
42847;BME280;28495;49.916;14.536;2023-04-20T15:48:17;96727.34;;;13.22;66.33
42847;BME280;28495;49.916;14.536;2023-04-20T15:53:38;96736.84;;;13.23;65.97
42847;BME280;28495;49.916;14.536;2023-04-20T15:58:58;96735.50;;;13.19;65.71
42847;BME280;28495;49.916;14.536;2023-04-20T16:04:19;96739.56;;;13.14;65.98
42847;BME280;28495;49.916;14.536;2023-04-20T16:09:40;96741.69;;;13.10;65.80
42847;BME280;28495;49.916;14.536;2023-04-20T16:15:01;96738.56;;;13.06;65.67
42847;BME280;28495;49.916;14.536;2023-04-20T16:20:23;96743.28;;;13.03;65.60
42847;BME280;28495;49.916;14.536;2023-04-20T16:25:44;96739.84;;;13.02;65.96
42847;BME280;28495;49.916;14.536;2023-04-20T16:31:06;96751.28;;;13.01;65.21
42847;BME280;28495;49.916;14.536;2023-04-20T16:36:27;96748.84;;;13.00;65.20
42847;BME280;28495;49.916;14.536;2023-04-20T16:41:47;96745.69;;;12.96;65.10
42847;BME280;28495;49.916;14.536;2023-04-20T16:47:08;96748.94;;;12.90;65.03
42847;BME280;28495;49.916;14.536;2023-04-20T16:52:29;96744.81;;;12.87;65.03
42847;BME280;28495;49.916;14.536;2023-04-20T16:57:50;96748.88;;;12.81;64.74
42847;BME280;28495;49.916;14.536;2023-04-20T17:03:10;96754.09;;;12.73;64.52
42847;BME280;28495;49.916;14.536;2023-04-20T17:08:33;96763.69;;;12.64;64.34
42847;BME280;28495;49.916;14.536;2023-04-20T17:13:54;96758.72;;;12.53;64.27
42847;BME280;28495;49.916;14.536;2023-04-20T17:19:16;96761.63;;;12.50;64.24
42847;BME280;28495;49.916;14.536;2023-04-20T17:24:37;96764.03;;;12.43;64.12
42847;BME280;28495;49.916;14.536;2023-04-20T17:29:58;96765.59;;;12.36;64.25
42847;BME280;28495;49.916;14.536;2023-04-20T17:35:19;96765.66;;;12.26;63.95
42847;BME280;28495;49.916;14.536;2023-04-20T17:40:40;96774.25;;;12.18;64.04
42847;BME280;28495;49.916;14.536;2023-04-20T17:46:01;96770.09;;;12.08;63.94
42847;BME280;28495;49.916;14.536;2023-04-20T17:51:22;96771.13;;;11.97;64.19
42847;BME280;28495;49.916;14.536;2023-04-20T17:56:42;96780.59;;;11.80;64.15
42847;BME280;28495;49.916;14.536;2023-04-20T18:02:03;96775.56;;;11.68;64.06
42847;BME280;28495;49.916;14.536;2023-04-20T18:07:24;96793.09;;;11.58;64.13
42847;BME280;28495;49.916;14.536;2023-04-20T18:12:45;96796.13;;;11.53;64.04
42847;BME280;28495;49.916;14.536;2023-04-20T18:18:06;96808.97;;;11.47;64.03
42847;BME280;28495;49.916;14.536;2023-04-20T18:23:26;96806.75;;;11.42;63.94
42847;BME280;28495;49.916;14.536;2023-04-20T18:28:49;96809.00;;;11.37;63.99
42847;BME280;28495;49.916;14.536;2023-04-20T18:34:10;96817.50;;;11.39;64.14
42847;BME280;28495;49.916;14.536;2023-04-20T18:39:32;96820.25;;;11.37;64.20
42847;BME280;28495;49.916;14.536;2023-04-20T18:44:53;96826.88;;;11.32;64.08
42847;BME280;28495;49.916;14.536;2023-04-20T18:50:15;96832.69;;;11.25;63.87
42847;BME280;28495;49.916;14.536;2023-04-20T18:55:36;96827.22;;;11.19;63.85
42847;BME280;28495;49.916;14.536;2023-04-20T19:00:57;96835.44;;;11.14;64.04
42847;BME280;28495;49.916;14.536;2023-04-20T19:06:20;96843.28;;;11.14;64.13
42847;BME280;28495;49.916;14.536;2023-04-20T19:11:41;96839.16;;;11.11;64.12
42847;BME280;28495;49.916;14.536;2023-04-20T19:17:05;96839.31;;;11.10;63.93
42847;BME280;28495;49.916;14.536;2023-04-20T19:22:27;96838.47;;;11.09;64.17
42847;BME280;28495;49.916;14.536;2023-04-20T19:27:48;96843.97;;;11.06;64.29
42847;BME280;28495;49.916;14.536;2023-04-20T19:33:08;96845.09;;;11.04;64.21
42847;BME280;28495;49.916;14.536;2023-04-20T19:38:29;96856.34;;;11.04;64.18
42847;BME280;28495;49.916;14.536;2023-04-20T19:43:51;96853.19;;;11.01;64.49
42847;BME280;28495;49.916;14.536;2023-04-20T19:49:12;96851.69;;;10.98;64.53
42847;BME280;28495;49.916;14.536;2023-04-20T19:54:33;96861.31;;;10.97;64.49
42847;BME280;28495;49.916;14.536;2023-04-20T19:59:54;96862.69;;;10.92;64.48
42847;BME280;28495;49.916;14.536;2023-04-20T20:05:15;96866.56;;;10.88;64.50
42847;BME280;28495;49.916;14.536;2023-04-20T20:10:36;96866.41;;;10.79;64.63
42847;BME280;28495;49.916;14.536;2023-04-20T20:15:57;96869.03;;;10.79;64.64
42847;BME280;28495;49.916;14.536;2023-04-20T20:21:18;96873.16;;;10.72;64.51
42847;BME280;28495;49.916;14.536;2023-04-20T20:26:39;96875.09;;;10.60;64.23
42847;BME280;28495;49.916;14.536;2023-04-20T20:32:00;96873.44;;;10.49;64.46
42847;BME280;28495;49.916;14.536;2023-04-20T20:37:21;96869.16;;;10.39;64.59
42847;BME280;28495;49.916;14.536;2023-04-20T20:42:44;96873.78;;;10.25;64.51
42847;BME280;28495;49.916;14.536;2023-04-20T20:48:05;96879.81;;;10.16;64.70
42847;BME280;28495;49.916;14.536;2023-04-20T20:53:26;96872.81;;;10.16;65.02
42847;BME280;28495;49.916;14.536;2023-04-20T20:58:47;96877.63;;;10.11;65.16
42847;BME280;28495;49.916;14.536;2023-04-20T21:04:07;96879.66;;;9.98;65.29
42847;BME280;28495;49.916;14.536;2023-04-20T21:09:28;96877.28;;;9.85;65.04
42847;BME280;28495;49.916;14.536;2023-04-20T21:14:49;96868.50;;;9.76;65.36
42847;BME280;28495;49.916;14.536;2023-04-20T21:20:11;96868.47;;;9.66;65.20
42847;BME280;28495;49.916;14.536;2023-04-20T21:25:32;96869.66;;;9.62;65.26
42847;BME280;28495;49.916;14.536;2023-04-20T21:30:53;96863.59;;;9.52;65.92
42847;BME280;28495;49.916;14.536;2023-04-20T21:36:14;96866.34;;;9.50;65.71
42847;BME280;28495;49.916;14.536;2023-04-20T21:41:35;96875.41;;;9.56;66.29
42847;BME280;28495;49.916;14.536;2023-04-20T21:46:56;96872.66;;;9.57;66.38
42847;BME280;28495;49.916;14.536;2023-04-20T21:52:17;96872.94;;;9.54;66.08
42847;BME280;28495;49.916;14.536;2023-04-20T21:57:38;96875.97;;;9.59;66.52
42847;BME280;28495;49.916;14.536;2023-04-20T22:02:58;96878.19;;;9.64;66.55
42847;BME280;28495;49.916;14.536;2023-04-20T22:08:20;96876.16;;;9.68;66.29
42847;BME280;28495;49.916;14.536;2023-04-20T22:13:44;96878.63;;;9.69;66.27
42847;BME280;28495;49.916;14.536;2023-04-20T22:19:04;96880.91;;;9.63;66.44
42847;BME280;28495;49.916;14.536;2023-04-20T22:24:25;96879.06;;;9.43;66.39
42847;BME280;28495;49.916;14.536;2023-04-20T22:29:46;96880.09;;;9.31;66.40
42847;BME280;28495;49.916;14.536;2023-04-20T22:35:07;96876.38;;;9.24;66.67
42847;BME280;28495;49.916;14.536;2023-04-20T22:40:28;96875.28;;;9.26;66.96
42847;BME280;28495;49.916;14.536;2023-04-20T22:45:49;96873.22;;;9.20;66.83
42847;BME280;28495;49.916;14.536;2023-04-20T22:51:09;96874.00;;;9.21;67.02
42847;BME280;28495;49.916;14.536;2023-04-20T22:56:30;96878.41;;;9.20;67.30
42847;BME280;28495;49.916;14.536;2023-04-20T23:01:51;96876.22;;;9.25;67.31
42847;BME280;28495;49.916;14.536;2023-04-20T23:07:12;96867.78;;;9.33;67.35
42847;BME280;28495;49.916;14.536;2023-04-20T23:12:33;96877.63;;;9.29;67.05
42847;BME280;28495;49.916;14.536;2023-04-20T23:17:54;96866.25;;;9.30;67.12
42847;BME280;28495;49.916;14.536;2023-04-20T23:23:16;96874.47;;;9.26;67.39
42847;BME280;28495;49.916;14.536;2023-04-20T23:28:37;96873.63;;;9.25;66.84
42847;BME280;28495;49.916;14.536;2023-04-20T23:33:58;96870.22;;;9.25;67.27
42847;BME280;28495;49.916;14.536;2023-04-20T23:39:19;96874.16;;;9.19;66.86
42847;BME280;28495;49.916;14.536;2023-04-20T23:44:40;96867.56;;;9.15;66.88
42847;BME280;28495;49.916;14.536;2023-04-20T23:50:01;96860.00;;;9.12;67.36
42847;BME280;28495;49.916;14.536;2023-04-20T23:55:22;96847.94;;;9.11;67.29
